createdAt,value
2019-04-26T00:00:45.641Z,1002.41
2019-04-26T00:01:45.657Z,1002.39
2019-04-26T00:02:45.624Z,1002.33
2019-04-26T00:03:45.634Z,1002.36
2019-04-26T00:04:45.601Z,1002.34
2019-04-26T00:05:45.588Z,1002.36
2019-04-26T00:06:45.564Z,1002.38
2019-04-26T00:07:45.580Z,1002.34
2019-04-26T00:08:45.541Z,1002.37
2019-04-26T00:09:45.530Z,1002.32
2019-04-26T00:10:45.539Z,1002.37
2019-04-26T00:11:45.520Z,1002.36
2019-04-26T00:12:45.529Z,1002.30
2019-04-26T00:13:45.508Z,1002.30
2019-04-26T00:14:45.489Z,1002.29
2019-04-26T00:15:45.478Z,1002.26
2019-04-26T00:16:45.468Z,1002.26
2019-04-26T00:17:45.948Z,1002.28
2019-04-26T00:18:45.438Z,1002.27
2019-04-26T00:19:45.444Z,1002.27
2019-04-26T00:20:45.415Z,1002.25
2019-04-26T00:21:45.420Z,1002.25
2019-04-26T00:22:45.408Z,1002.26
2019-04-26T00:23:45.398Z,1002.22
2019-04-26T00:24:45.371Z,1002.22
2019-04-26T00:25:45.366Z,1002.27
2019-04-26T00:26:45.351Z,1002.20
2019-04-26T00:27:45.335Z,1002.28
2019-04-26T00:28:45.353Z,1002.24
2019-04-26T00:29:45.318Z,1002.33
2019-04-26T00:30:45.313Z,1002.22
2019-04-26T00:31:45.291Z,1002.20
2019-04-26T00:32:45.282Z,1002.19
2019-04-26T00:33:45.298Z,1002.18
2019-04-26T00:34:45.269Z,1002.14
2019-04-26T00:35:47.795Z,1002.13
2019-04-26T00:36:45.253Z,1002.14
2019-04-26T00:37:45.234Z,1002.05
2019-04-26T00:38:45.214Z,1002.06
2019-04-26T00:39:45.225Z,1002.08
2019-04-26T00:40:45.197Z,1002.03
2019-04-26T00:41:45.185Z,1001.99
2019-04-26T00:42:45.176Z,1002.04
2019-04-26T00:43:45.173Z,1001.98
2019-04-26T00:44:45.161Z,1001.99
2019-04-26T00:45:45.143Z,1001.95
2019-04-26T00:46:45.141Z,1001.98
2019-04-26T00:47:45.121Z,1001.98
2019-04-26T00:48:45.105Z,1001.96
2019-04-26T00:49:45.187Z,1001.91
2019-04-26T00:50:45.083Z,1001.89
2019-04-26T00:51:45.080Z,1001.86
2019-04-26T00:52:45.135Z,1001.92
2019-04-26T00:53:45.050Z,1001.88
2019-04-26T00:54:45.051Z,1001.86
2019-04-26T00:55:45.076Z,1001.88
2019-04-26T00:56:45.025Z,1001.84
2019-04-26T00:57:45.012Z,1001.81
2019-04-26T00:58:44.993Z,1001.83
2019-04-26T00:59:44.984Z,1001.83
2019-04-26T01:00:45.029Z,1001.74
2019-04-26T01:01:44.969Z,1001.78
2019-04-26T01:02:44.950Z,1001.74
2019-04-26T01:03:44.944Z,1001.75
2019-04-26T01:04:44.920Z,1001.70
2019-04-26T01:05:44.916Z,1001.73
2019-04-26T01:06:44.933Z,1001.75
2019-04-26T01:07:44.891Z,1001.71
2019-04-26T01:08:44.884Z,1001.66
2019-04-26T01:09:44.871Z,1001.70
2019-04-26T01:10:44.875Z,1001.64
2019-04-26T01:11:44.864Z,1001.65
2019-04-26T01:12:44.865Z,1001.71
2019-04-26T01:13:44.833Z,1001.62
2019-04-26T01:14:44.825Z,1001.62
2019-04-26T01:15:44.836Z,1001.59
2019-04-26T01:16:45.696Z,1001.61
2019-04-26T01:17:44.786Z,1001.57
2019-04-26T01:18:44.780Z,1001.62
2019-04-26T01:19:44.767Z,1001.59
2019-04-26T01:20:44.763Z,1001.55
2019-04-26T01:21:44.773Z,1001.56
2019-04-26T01:22:44.738Z,1001.59
2019-04-26T01:23:44.725Z,1001.54
2019-04-26T01:24:44.719Z,1001.50
2019-04-26T01:25:44.699Z,1001.53
2019-04-26T01:26:44.717Z,1001.46
2019-04-26T01:27:44.677Z,1001.47
2019-04-26T01:28:44.665Z,1001.47
2019-04-26T01:29:44.718Z,1001.39
2019-04-26T01:30:44.634Z,1001.45
2019-04-26T01:31:44.651Z,1001.46
2019-04-26T01:32:44.617Z,1001.43
2019-04-26T01:33:44.627Z,1001.40
2019-04-26T01:34:44.656Z,1001.39
2019-04-26T01:35:44.597Z,1001.40
2019-04-26T01:36:44.606Z,1001.41
2019-04-26T01:37:44.579Z,1001.37
2019-04-26T01:38:44.568Z,1001.33
2019-04-26T01:39:44.553Z,1001.34
2019-04-26T01:40:44.594Z,1001.36
2019-04-26T01:41:44.557Z,1001.33
2019-04-26T01:42:44.504Z,1001.36
2019-04-26T01:43:44.502Z,1001.38
2019-04-26T01:44:44.484Z,1001.36
2019-04-26T01:45:44.475Z,1001.37
2019-04-26T01:46:44.474Z,1001.31
2019-04-26T01:47:44.488Z,1001.37
2019-04-26T01:48:44.440Z,1001.32
2019-04-26T01:49:44.461Z,1001.26
2019-04-26T01:50:44.432Z,1001.30
2019-04-26T01:51:44.416Z,1001.35
2019-04-26T01:52:44.438Z,1001.28
2019-04-26T01:53:44.412Z,1001.24
2019-04-26T01:54:44.378Z,1001.30
2019-04-26T01:55:44.376Z,1001.28
2019-04-26T01:56:44.377Z,1001.25
2019-04-26T01:57:44.348Z,1001.31
2019-04-26T01:58:44.377Z,1001.29
2019-04-26T01:59:44.338Z,1001.24
2019-04-26T02:00:44.322Z,1001.20
2019-04-26T02:01:44.307Z,1001.27
2019-04-26T02:02:44.291Z,1001.35
2019-04-26T02:03:44.308Z,1001.28
2019-04-26T02:04:44.270Z,1001.18
2019-04-26T02:05:44.272Z,1001.19
2019-04-26T02:06:44.252Z,1001.25
2019-04-26T02:07:44.235Z,1001.26
2019-04-26T02:08:44.243Z,1001.28
2019-04-26T02:09:44.219Z,1001.24
2019-04-26T02:10:44.207Z,1001.26
2019-04-26T02:11:44.211Z,1001.20
2019-04-26T02:12:44.186Z,1001.22
2019-04-26T02:13:44.195Z,1001.16
2019-04-26T02:14:44.184Z,1001.20
2019-04-26T02:15:44.160Z,1001.16
2019-04-26T02:16:44.132Z,1001.17
2019-04-26T02:17:44.116Z,1001.08
2019-04-26T02:18:44.119Z,1001.07
2019-04-26T02:19:44.102Z,1001.10
2019-04-26T02:20:44.095Z,1001.09
2019-04-26T02:21:44.109Z,1001.03
2019-04-26T02:22:44.072Z,1001.03
2019-04-26T02:23:44.083Z,1000.99
2019-04-26T02:24:44.047Z,1000.99
2019-04-26T02:25:44.033Z,1001.04
2019-04-26T02:26:44.036Z,1000.97
2019-04-26T02:27:44.007Z,1001.04
2019-04-26T02:28:44.033Z,1000.94
2019-04-26T02:29:43.992Z,1000.96
2019-04-26T02:30:43.982Z,1000.90
2019-04-26T02:31:43.990Z,1000.91
2019-04-26T02:32:43.957Z,1000.90
2019-04-26T02:33:43.950Z,1000.94
2019-04-26T02:34:43.946Z,1000.93
2019-04-26T02:35:43.928Z,1000.93
2019-04-26T02:36:57.159Z,1000.91
2019-04-26T02:37:44.900Z,1001.01
2019-04-26T02:38:43.885Z,1000.92
2019-04-26T02:39:43.901Z,1000.93
2019-04-26T02:40:44.057Z,1000.86
2019-04-26T02:41:43.856Z,1000.87
2019-04-26T02:42:43.845Z,1000.86
2019-04-26T02:43:43.836Z,1000.84
2019-04-26T02:44:43.914Z,1000.83
2019-04-26T02:45:43.813Z,1000.84
2019-04-26T02:46:43.860Z,1000.86
2019-04-26T02:47:43.808Z,1000.80
2019-04-26T02:48:43.788Z,1000.84
2019-04-26T02:49:43.776Z,1000.78
2019-04-26T02:50:43.789Z,1000.88
2019-04-26T02:51:43.766Z,1000.82
2019-04-26T02:52:43.731Z,1000.92
2019-04-26T02:53:43.727Z,1000.86
2019-04-26T02:54:43.706Z,1000.86
2019-04-26T02:55:43.727Z,1000.87
2019-04-26T02:56:43.706Z,1000.84
2019-04-26T02:57:43.688Z,1000.86
2019-04-26T02:58:43.668Z,1000.89
2019-04-26T02:59:43.672Z,1000.83
2019-04-26T03:00:43.675Z,1000.87
2019-04-26T03:01:43.633Z,1000.83
2019-04-26T03:02:43.676Z,1000.83
2019-04-26T03:03:43.618Z,1000.87
2019-04-26T03:04:43.606Z,1000.82
2019-04-26T03:05:43.593Z,1000.79
2019-04-26T03:06:43.605Z,1000.81
2019-04-26T03:07:43.568Z,1000.82
2019-04-26T03:08:43.549Z,1000.80
2019-04-26T03:09:43.543Z,1000.80
2019-04-26T03:10:43.702Z,1000.81
2019-04-26T03:11:43.534Z,1000.82
2019-04-26T03:12:43.534Z,1000.75
2019-04-26T03:13:43.818Z,1000.76
2019-04-26T03:14:43.496Z,1000.74
2019-04-26T03:15:43.483Z,1000.73
2019-04-26T03:16:43.494Z,1000.70
2019-04-26T03:17:43.465Z,1000.72
2019-04-26T03:18:43.466Z,1000.70
2019-04-26T03:19:43.443Z,1000.68
2019-04-26T03:20:43.424Z,1000.75
2019-04-26T03:21:43.447Z,1000.68
2019-04-26T03:22:43.426Z,1000.66
2019-04-26T03:23:57.019Z,1000.67
2019-04-26T03:24:44.377Z,1000.70
2019-04-26T03:25:43.389Z,1000.69
2019-04-26T03:26:43.474Z,1000.70
2019-04-26T03:27:43.581Z,1000.73
2019-04-26T03:28:43.824Z,1000.67
2019-04-26T03:29:43.795Z,1000.71
2019-04-26T03:30:51.351Z,1000.70
2019-04-26T03:31:52.447Z,1000.69
2019-04-26T03:32:50.818Z,1000.64
2019-04-26T03:33:53.115Z,1000.71
2019-04-26T03:34:53.036Z,1000.65
2019-04-26T03:35:55.963Z,1000.64
2019-04-26T03:36:44.483Z,1000.64
2019-04-26T03:37:44.538Z,1000.66
2019-04-26T03:38:43.551Z,1000.65
2019-04-26T03:39:44.488Z,1000.69
2019-04-26T03:40:44.581Z,1000.67
2019-04-26T03:41:44.443Z,1000.69
2019-04-26T03:42:44.141Z,1000.65
2019-04-26T03:43:44.533Z,1000.71
2019-04-26T03:44:44.138Z,1000.71
2019-04-26T03:45:44.520Z,1000.73
2019-04-26T03:46:44.905Z,1000.69
2019-04-26T03:47:45.808Z,1000.70
2019-04-26T03:48:44.757Z,1000.67
2019-04-26T03:49:44.275Z,1000.68
2019-04-26T03:50:44.865Z,1000.67
2019-04-26T03:51:44.893Z,1000.66
2019-04-26T03:52:44.092Z,1000.65
2019-04-26T03:53:44.569Z,1000.69
2019-04-26T03:54:43.061Z,1000.62
2019-04-26T03:55:43.701Z,1000.66
2019-04-26T03:56:43.573Z,1000.66
2019-04-26T03:57:44.877Z,1000.65
2019-04-26T03:58:43.626Z,1000.69
2019-04-26T03:59:44.101Z,1000.68
2019-04-26T04:00:44.998Z,1000.75
2019-04-26T04:01:44.320Z,1000.75
2019-04-26T04:02:44.763Z,1000.72
2019-04-26T04:03:45.164Z,1000.68
2019-04-26T04:04:44.797Z,1000.76
2019-04-26T04:05:44.270Z,1000.78
2019-04-26T04:06:58.080Z,1000.77
2019-04-26T04:07:49.394Z,1000.78
2019-04-26T04:08:44.687Z,1000.74
2019-04-26T04:09:42.928Z,1000.80
2019-04-26T04:10:44.107Z,1000.74
2019-04-26T04:11:44.333Z,1000.75
2019-04-26T04:12:44.423Z,1000.73
2019-04-26T04:13:47.941Z,1000.76
2019-04-26T04:14:45.060Z,1000.76
2019-04-26T04:15:44.708Z,1000.74
2019-04-26T04:16:44.615Z,1000.73
2019-04-26T04:17:45.356Z,1000.76
2019-04-26T04:18:44.172Z,1000.73
2019-04-26T04:19:43.893Z,1000.73
2019-04-26T04:20:44.376Z,1000.71
2019-04-26T04:21:44.459Z,1000.77
2019-04-26T04:22:43.972Z,1000.76
2019-04-26T04:23:43.525Z,1000.70
2019-04-26T04:24:44.609Z,1000.75
2019-04-26T04:25:44.133Z,1000.75
2019-04-26T04:26:43.433Z,1000.72
2019-04-26T04:27:44.030Z,1000.68
2019-04-26T04:28:44.068Z,1000.66
2019-04-26T04:29:50.012Z,1000.69
2019-04-26T04:30:45.432Z,1000.65
2019-04-26T04:31:44.168Z,1000.68
2019-04-26T04:32:43.988Z,1000.71
2019-04-26T04:33:43.636Z,1000.69
2019-04-26T04:34:43.997Z,1000.69
2019-04-26T04:35:45.340Z,1000.74
2019-04-26T04:36:45.898Z,1000.69
2019-04-26T04:38:01.793Z,1000.71
2019-04-26T04:38:44.685Z,1000.71
2019-04-26T04:39:44.317Z,1000.71
2019-04-26T04:40:42.743Z,1000.73
2019-04-26T04:41:42.987Z,1000.73
2019-04-26T04:42:43.569Z,1000.75
2019-04-26T04:43:44.362Z,1000.71
2019-04-26T04:44:44.388Z,1000.72
2019-04-26T04:45:44.016Z,1000.76
2019-04-26T04:46:43.865Z,1000.75
2019-04-26T04:47:45.171Z,1000.71
2019-04-26T04:48:43.346Z,1000.74
2019-04-26T04:49:42.986Z,1000.76
2019-04-26T04:50:43.390Z,1000.77
2019-04-26T04:51:44.197Z,1000.75
2019-04-26T04:52:43.207Z,1000.73
2019-04-26T04:53:43.407Z,1000.75
2019-04-26T04:54:43.271Z,1000.75
2019-04-26T04:55:43.467Z,1000.78
2019-04-26T04:56:43.514Z,1000.79
2019-04-26T04:57:42.363Z,1000.84
2019-04-26T04:58:43.580Z,1000.82
2019-04-26T04:59:42.331Z,1000.86
2019-04-26T05:00:43.048Z,1000.85
2019-04-26T05:01:42.834Z,1000.91
2019-04-26T05:02:43.503Z,1000.93
2019-04-26T05:03:42.360Z,1000.89
2019-04-26T05:04:42.733Z,1000.79
2019-04-26T05:05:43.482Z,1000.82
2019-04-26T05:06:42.707Z,1000.80
2019-04-26T05:07:43.849Z,1000.88
2019-04-26T05:08:42.902Z,1000.77
2019-04-26T05:09:43.892Z,1000.78
2019-04-26T05:10:42.212Z,1000.77
2019-04-26T05:11:42.201Z,1000.83
2019-04-26T05:12:42.223Z,1000.82
2019-04-26T05:13:42.219Z,1000.82
2019-04-26T05:14:42.164Z,1000.79
2019-04-26T05:15:42.145Z,1000.82
2019-04-26T05:16:42.141Z,1000.79
2019-04-26T05:17:42.139Z,1000.80
2019-04-26T05:18:42.118Z,1000.81
2019-04-26T05:19:42.136Z,1000.83
2019-04-26T05:20:42.090Z,1000.84
2019-04-26T05:21:42.080Z,1000.79
2019-04-26T05:22:42.079Z,1000.84
2019-04-26T05:23:42.085Z,1000.81
2019-04-26T05:24:42.062Z,1000.84
2019-04-26T05:25:42.069Z,1000.82
2019-04-26T05:26:42.022Z,1000.79
2019-04-26T05:27:42.017Z,1000.80
2019-04-26T05:28:42.015Z,1000.75
2019-04-26T05:29:42.018Z,1000.80
2019-04-26T05:30:42.020Z,1000.77
2019-04-26T05:31:41.990Z,1000.77
2019-04-26T05:32:41.969Z,1000.80
2019-04-26T05:33:41.955Z,1000.84
2019-04-26T05:34:41.967Z,1000.80
2019-04-26T05:35:42.324Z,1000.80
2019-04-26T05:36:41.935Z,1000.78
2019-04-26T05:37:42.045Z,1000.82
2019-04-26T05:38:41.923Z,1000.83
2019-04-26T05:39:41.913Z,1000.83
2019-04-26T05:40:41.894Z,1000.80
2019-04-26T05:41:41.912Z,1000.77
2019-04-26T05:42:41.885Z,1000.73
2019-04-26T05:43:41.893Z,1000.74
2019-04-26T05:44:41.857Z,1000.81
2019-04-26T05:45:41.853Z,1000.74
2019-04-26T05:46:42.710Z,1000.77
2019-04-26T05:47:41.875Z,1000.75
2019-04-26T05:48:41.815Z,1000.73
2019-04-26T05:49:41.806Z,1000.75
2019-04-26T05:50:41.795Z,1000.79
2019-04-26T05:51:41.827Z,1000.79
2019-04-26T05:52:41.864Z,1000.87
2019-04-26T05:53:41.733Z,1000.86
2019-04-26T05:54:41.733Z,1000.87
2019-04-26T05:55:41.722Z,1000.93
2019-04-26T05:56:41.730Z,1000.93
2019-04-26T05:57:41.698Z,1001.03
2019-04-26T05:58:41.713Z,1000.98
2019-04-26T05:59:41.669Z,1000.97
2019-04-26T06:00:41.660Z,1000.96
2019-04-26T06:01:41.653Z,1000.81
2019-04-26T06:02:41.647Z,1000.83
2019-04-26T06:03:41.649Z,1000.89
2019-04-26T06:04:41.610Z,1000.94
2019-04-26T06:05:41.692Z,1001.02
2019-04-26T06:06:41.599Z,1000.98
2019-04-26T06:07:41.587Z,1001.00
2019-04-26T06:08:41.614Z,1000.95
2019-04-26T06:09:41.605Z,1000.92
2019-04-26T06:10:41.548Z,1000.92
2019-04-26T06:11:41.538Z,1000.93
2019-04-26T06:12:41.559Z,1000.90
2019-04-26T06:13:41.530Z,1000.94
2019-04-26T06:14:41.520Z,1000.99
2019-04-26T06:15:41.500Z,1000.98
2019-04-26T06:16:41.497Z,1001.01
2019-04-26T06:17:41.481Z,1000.97
2019-04-26T06:18:41.481Z,1000.96
2019-04-26T06:19:41.475Z,1000.99
2019-04-26T06:20:41.452Z,1000.89
2019-04-26T06:21:41.434Z,1000.98
2019-04-26T06:22:41.413Z,1000.98
2019-04-26T06:23:41.405Z,1001.07
2019-04-26T06:24:41.412Z,1000.96
2019-04-26T06:25:41.393Z,1001.01
2019-04-26T06:26:41.397Z,1001.04
2019-04-26T06:27:41.375Z,1001.05
2019-04-26T06:28:41.356Z,1001.00
2019-04-26T06:29:41.351Z,1001.07
2019-04-26T06:30:45.691Z,1001.04
2019-04-26T06:31:41.330Z,1001.07
2019-04-26T06:32:42.389Z,1001.02
2019-04-26T06:33:41.302Z,1001.00
2019-04-26T06:34:41.294Z,1001.04
2019-04-26T06:35:41.302Z,1001.00
2019-04-26T06:36:41.283Z,1001.03
2019-04-26T06:37:41.271Z,1000.95
2019-04-26T06:38:44.072Z,1001.00
2019-04-26T06:39:41.231Z,1000.98
2019-04-26T06:40:41.968Z,1001.06
2019-04-26T06:41:41.224Z,1001.01
2019-04-26T06:42:41.199Z,1001.04
2019-04-26T06:43:41.184Z,1001.04
2019-04-26T06:44:41.178Z,1000.99
2019-04-26T06:45:41.167Z,1001.01
2019-04-26T06:46:41.194Z,1001.01
2019-04-26T06:47:41.162Z,1000.97
2019-04-26T06:48:41.143Z,1000.98
2019-04-26T06:49:41.148Z,1000.96
2019-04-26T06:50:41.105Z,1000.93
2019-04-26T06:51:41.108Z,1000.93
2019-04-26T06:52:41.138Z,1000.95
2019-04-26T06:53:41.091Z,1000.91
2019-04-26T06:54:41.078Z,1000.90
2019-04-26T06:55:41.061Z,1000.92
2019-04-26T06:56:41.046Z,1000.87
2019-04-26T06:57:41.061Z,1000.86
2019-04-26T06:58:41.038Z,1000.84
2019-04-26T06:59:41.022Z,1000.84
2019-04-26T07:00:41.019Z,1000.83
2019-04-26T07:01:41.006Z,1000.93
2019-04-26T07:02:40.984Z,1000.90
2019-04-26T07:03:41.001Z,1000.84
2019-04-26T07:04:40.980Z,1000.80
2019-04-26T07:05:40.962Z,1000.81
2019-04-26T07:06:40.954Z,1000.80
2019-04-26T07:07:40.954Z,1000.89
2019-04-26T07:08:40.939Z,1000.92
2019-04-26T07:09:40.908Z,1000.89
2019-04-26T07:10:40.913Z,1000.86
2019-04-26T07:11:40.901Z,1000.80
2019-04-26T07:12:40.894Z,1000.74
2019-04-26T07:13:40.915Z,1000.66
2019-04-26T07:14:40.852Z,1000.66
2019-04-26T07:15:40.851Z,1000.62
2019-04-26T07:16:40.827Z,1000.69
2019-04-26T07:17:40.824Z,1000.69
2019-04-26T07:18:40.823Z,1000.66
2019-04-26T07:19:40.828Z,1000.64
2019-04-26T07:20:40.806Z,1000.66
2019-04-26T07:21:40.793Z,1000.77
2019-04-26T07:22:40.767Z,1000.68
2019-04-26T07:23:40.752Z,1000.69
2019-04-26T07:24:40.787Z,1000.70
2019-04-26T07:25:40.790Z,1000.64
2019-04-26T07:26:40.732Z,1000.67
2019-04-26T07:27:40.715Z,1000.67
2019-04-26T07:28:40.706Z,1000.66
2019-04-26T07:29:40.706Z,1000.64
2019-04-26T07:30:40.712Z,1000.72
2019-04-26T07:31:40.677Z,1000.68
2019-04-26T07:32:40.669Z,1000.80
2019-04-26T07:33:40.657Z,1000.84
2019-04-26T07:34:40.632Z,1000.76
2019-04-26T07:35:41.317Z,1000.72
2019-04-26T07:36:40.638Z,1000.69
2019-04-26T07:37:40.611Z,1000.69
2019-04-26T07:38:40.633Z,1000.83
2019-04-26T07:39:40.612Z,1000.81
2019-04-26T07:40:40.574Z,1000.73
2019-04-26T07:41:40.610Z,1000.72
2019-04-26T07:42:40.570Z,1000.74
2019-04-26T07:43:41.259Z,1000.83
2019-04-26T07:44:40.541Z,1000.95
2019-04-26T07:45:40.543Z,1000.96
2019-04-26T07:46:40.536Z,1000.87
2019-04-26T07:47:40.503Z,1000.89
2019-04-26T07:48:40.494Z,1000.87
2019-04-26T07:49:40.485Z,1000.82
2019-04-26T07:50:40.469Z,1000.81
2019-04-26T07:51:40.490Z,1000.97
2019-04-26T07:52:40.464Z,1000.86
2019-04-26T07:53:40.443Z,1000.85
2019-04-26T07:54:40.436Z,1000.85
2019-04-26T07:55:40.427Z,1000.82
2019-04-26T07:56:40.414Z,1000.83
2019-04-26T07:57:40.422Z,1000.75
2019-04-26T07:58:40.397Z,1000.77
2019-04-26T07:59:40.374Z,1000.80
2019-04-26T08:00:45.033Z,1000.78
2019-04-26T08:01:41.376Z,1000.79
2019-04-26T08:02:40.346Z,1000.79
2019-04-26T08:03:40.351Z,1000.83
2019-04-26T08:04:40.332Z,1000.80
2019-04-26T08:05:40.326Z,1000.79
2019-04-26T08:06:40.304Z,1000.78
2019-04-26T08:07:40.305Z,1000.78
2019-04-26T08:08:40.273Z,1000.81
2019-04-26T08:09:40.260Z,1000.81
2019-04-26T08:10:40.264Z,1000.77
2019-04-26T08:11:40.253Z,1000.72
2019-04-26T08:12:40.259Z,1000.78
2019-04-26T08:13:40.223Z,1000.74
2019-04-26T08:14:40.223Z,1000.75
2019-04-26T08:15:40.212Z,1000.76
2019-04-26T08:16:40.204Z,1000.73
2019-04-26T08:17:40.215Z,1000.73
2019-04-26T08:18:40.171Z,1000.71
2019-04-26T08:19:40.159Z,1000.70
2019-04-26T08:20:40.149Z,1000.69
2019-04-26T08:21:42.525Z,1000.74
2019-04-26T08:22:41.200Z,1000.69
2019-04-26T08:23:42.181Z,1000.69
2019-04-26T08:24:40.120Z,1000.65
2019-04-26T08:25:40.109Z,1000.63
2019-04-26T08:26:40.075Z,1000.67
2019-04-26T08:27:40.109Z,1000.65
2019-04-26T08:28:40.155Z,1000.64
2019-04-26T08:29:40.064Z,1000.68
2019-04-26T08:30:40.616Z,1000.66
2019-04-26T08:31:40.027Z,1000.68
2019-04-26T08:32:40.013Z,1000.69
2019-04-26T08:33:40.407Z,1000.65
2019-04-26T08:34:40.031Z,1000.63
2019-04-26T08:35:40.001Z,1000.66
2019-04-26T08:36:39.984Z,1000.73
2019-04-26T08:37:39.975Z,1000.70
2019-04-26T08:38:39.958Z,1000.69
2019-04-26T08:39:45.711Z,1000.80
2019-04-26T08:40:40.952Z,1000.81
2019-04-26T08:41:40.213Z,1000.82
2019-04-26T08:42:39.921Z,1000.93
2019-04-26T08:43:39.915Z,1000.84
2019-04-26T08:44:39.908Z,1000.78
2019-04-26T08:45:40.550Z,1000.82
2019-04-26T08:46:39.886Z,1000.73
2019-04-26T08:47:39.877Z,1000.96
2019-04-26T08:48:39.861Z,1000.89
2019-04-26T08:49:40.079Z,1000.89
2019-04-26T08:50:42.211Z,1000.93
2019-04-26T08:51:39.813Z,1000.83
2019-04-26T08:52:39.809Z,1000.82
2019-04-26T08:53:39.810Z,1000.89
2019-04-26T08:54:39.821Z,1001.01
2019-04-26T08:55:39.786Z,1001.04
2019-04-26T08:56:39.797Z,1001.02
2019-04-26T08:57:39.774Z,1000.96
2019-04-26T08:58:39.747Z,1000.96
2019-04-26T08:59:39.768Z,1000.96
2019-04-26T09:00:39.742Z,1000.90
2019-04-26T09:01:41.990Z,1000.87
2019-04-26T09:02:39.710Z,1000.85
2019-04-26T09:03:39.709Z,1000.89
2019-04-26T09:04:39.712Z,1000.79
2019-04-26T09:05:39.699Z,1000.79
2019-04-26T09:06:39.688Z,1000.78
2019-04-26T09:07:39.679Z,1000.80
2019-04-26T09:08:43.477Z,1000.79
2019-04-26T09:09:40.655Z,1000.72
2019-04-26T09:10:43.321Z,1000.75
2019-04-26T09:11:39.625Z,1000.74
2019-04-26T09:12:39.613Z,1000.72
2019-04-26T09:13:39.611Z,1000.72
2019-04-26T09:14:39.598Z,1000.74
2019-04-26T09:15:40.709Z,1000.72
2019-04-26T09:16:49.851Z,1000.67
2019-04-26T09:17:40.582Z,1000.71
2019-04-26T09:18:43.634Z,1000.75
2019-04-26T09:19:40.555Z,1000.75
2019-04-26T09:20:42.894Z,1000.78
2019-04-26T09:21:39.565Z,1000.76
2019-04-26T09:22:39.527Z,1000.73
2019-04-26T09:23:40.445Z,1000.78
2019-04-26T09:24:39.509Z,1000.78
2019-04-26T09:25:39.660Z,1000.83
2019-04-26T09:26:42.359Z,1000.71
2019-04-26T09:27:40.492Z,1000.69
2019-04-26T09:28:39.469Z,1000.80
2019-04-26T09:29:39.453Z,1000.81
2019-04-26T09:30:42.389Z,1000.76
2019-04-26T09:31:39.421Z,1000.76
2019-04-26T09:32:39.439Z,1000.70
2019-04-26T09:33:39.413Z,1000.71
2019-04-26T09:34:41.247Z,1000.72
2019-04-26T09:35:39.414Z,1000.72
2019-04-26T09:36:39.372Z,1000.68
2019-04-26T09:37:39.441Z,1000.71
2019-04-26T09:38:39.361Z,1000.68
2019-04-26T09:39:41.685Z,1000.67
2019-04-26T09:40:39.346Z,1000.67
2019-04-26T09:41:39.333Z,1000.69
2019-04-26T09:42:40.876Z,1000.70
2019-04-26T09:43:39.328Z,1000.67
2019-04-26T09:44:41.449Z,1000.61
2019-04-26T09:45:39.282Z,1000.62
2019-04-26T09:46:39.290Z,1000.56
2019-04-26T09:47:39.269Z,1000.57
2019-04-26T09:48:39.270Z,1000.55
2019-04-26T09:49:41.258Z,1000.65
2019-04-26T09:50:39.237Z,1000.63
2019-04-26T09:51:40.439Z,1000.63
2019-04-26T09:52:39.229Z,1000.60
2019-04-26T09:53:39.568Z,1000.65
2019-04-26T09:54:39.190Z,1000.66
2019-04-26T09:55:39.192Z,1000.69
2019-04-26T09:56:39.232Z,1000.68
2019-04-26T09:57:39.164Z,1000.69
2019-04-26T09:58:39.199Z,1000.74
2019-04-26T09:59:40.014Z,1000.70
2019-04-26T10:00:39.143Z,1000.76
2019-04-26T10:01:39.122Z,1000.74
2019-04-26T10:02:39.110Z,1000.76
2019-04-26T10:03:39.203Z,1000.78
2019-04-26T10:04:39.127Z,1000.78
2019-04-26T10:05:39.091Z,1000.75
2019-04-26T10:06:39.065Z,1000.77
2019-04-26T10:07:39.068Z,1000.76
2019-04-26T10:08:39.049Z,1000.75
2019-04-26T10:09:39.038Z,1000.74
2019-04-26T10:10:39.057Z,1000.79
2019-04-26T10:11:39.543Z,1000.81
2019-04-26T10:12:39.011Z,1000.90
2019-04-26T10:13:39.008Z,1000.88
2019-04-26T10:14:39.008Z,1000.81
2019-04-26T10:15:39.220Z,1000.86
2019-04-26T10:16:42.192Z,1000.92
2019-04-26T10:17:38.953Z,1000.84
2019-04-26T10:18:38.968Z,1000.92
2019-04-26T10:19:38.948Z,1000.90
2019-04-26T10:20:38.958Z,1000.89
2019-04-26T10:21:38.920Z,1000.89
2019-04-26T10:22:38.913Z,1000.90
2019-04-26T10:23:38.922Z,1000.94
2019-04-26T10:24:38.923Z,1000.90
2019-04-26T10:25:38.889Z,1000.84
2019-04-26T10:26:38.866Z,1000.90
2019-04-26T10:27:40.867Z,1000.92
2019-04-26T10:28:38.843Z,1000.92
2019-04-26T10:29:38.852Z,1000.83
2019-04-26T10:30:42.364Z,1000.82
2019-04-26T10:31:38.837Z,1000.88
2019-04-26T10:32:38.832Z,1000.89
2019-04-26T10:33:38.954Z,1000.83
2019-04-26T10:34:42.639Z,1000.83
2019-04-26T10:35:39.788Z,1000.82
2019-04-26T10:36:38.809Z,1000.85
2019-04-26T10:37:39.845Z,1000.83
2019-04-26T10:38:38.796Z,1000.83
2019-04-26T10:39:38.787Z,1000.81
2019-04-26T10:40:38.747Z,1000.79
2019-04-26T10:41:38.747Z,1000.82
2019-04-26T10:42:38.734Z,1000.80
2019-04-26T10:43:38.724Z,1000.83
2019-04-26T10:44:39.921Z,1000.87
2019-04-26T10:45:38.738Z,1000.87
2019-04-26T10:46:38.930Z,1000.84
2019-04-26T10:47:39.889Z,1000.83
2019-04-26T10:48:41.230Z,1000.81
2019-04-26T10:49:39.532Z,1000.92
2019-04-26T10:50:39.476Z,1000.91
2019-04-26T10:51:41.842Z,1000.92
2019-04-26T10:52:39.732Z,1000.93
2019-04-26T10:53:39.557Z,1001.01
2019-04-26T10:54:41.038Z,1001.00
2019-04-26T10:55:39.294Z,1000.95
2019-04-26T10:56:39.480Z,1000.95
2019-04-26T10:57:39.551Z,1000.97
2019-04-26T10:58:39.467Z,1001.00
2019-04-26T10:59:39.930Z,1000.98
2019-04-26T11:00:40.402Z,1000.97
2019-04-26T11:01:39.357Z,1000.99
2019-04-26T11:02:39.519Z,1000.94
2019-04-26T11:03:39.451Z,1000.96
2019-04-26T11:04:41.458Z,1000.96
2019-04-26T11:05:39.183Z,1001.00
2019-04-26T11:06:39.211Z,1001.01
2019-04-26T11:07:39.531Z,1001.04
2019-04-26T11:08:38.996Z,1001.01
2019-04-26T11:09:39.150Z,1001.03
2019-04-26T11:10:47.974Z,1001.05
2019-04-26T11:11:39.949Z,1000.99
2019-04-26T11:12:39.691Z,1001.03
2019-04-26T11:13:39.345Z,1001.00
2019-04-26T11:14:39.319Z,1000.97
2019-04-26T11:15:39.095Z,1000.98
2019-04-26T11:16:41.112Z,1000.95
2019-04-26T11:17:39.399Z,1000.96
2019-04-26T11:18:39.418Z,1000.94
2019-04-26T11:19:39.418Z,1000.97
2019-04-26T11:20:41.512Z,1000.99
2019-04-26T11:21:40.111Z,1000.93
2019-04-26T11:22:39.322Z,1000.90
2019-04-26T11:23:41.027Z,1000.91
2019-04-26T11:24:40.116Z,1000.91
2019-04-26T11:25:39.245Z,1000.86
2019-04-26T11:26:38.993Z,1000.84
2019-04-26T11:27:40.226Z,1000.84
2019-04-26T11:28:41.873Z,1000.83
2019-04-26T11:29:39.354Z,1000.83
2019-04-26T11:30:39.126Z,1000.81
2019-04-26T11:31:38.787Z,1000.84
2019-04-26T11:32:39.071Z,1000.88
2019-04-26T11:33:44.637Z,1000.86
2019-04-26T11:34:42.766Z,1000.85
2019-04-26T11:35:38.899Z,1000.85
2019-04-26T11:36:41.810Z,1000.79
2019-04-26T11:37:39.104Z,1000.83
2019-04-26T11:38:39.269Z,1000.84
2019-04-26T11:39:40.450Z,1000.83
2019-04-26T11:40:39.142Z,1000.75
2019-04-26T11:41:39.162Z,1000.67
2019-04-26T11:42:41.850Z,1000.69
2019-04-26T11:43:39.979Z,1000.73
2019-04-26T11:44:39.335Z,1000.74
2019-04-26T11:45:38.959Z,1000.77
2019-04-26T11:46:44.490Z,1000.76
2019-04-26T11:47:54.276Z,1000.74
2019-04-26T11:48:39.977Z,1000.81
2019-04-26T11:49:41.559Z,1000.86
2019-04-26T11:50:38.752Z,1000.82
2019-04-26T11:51:38.704Z,1000.73
2019-04-26T11:52:38.883Z,1000.77
2019-04-26T11:53:40.646Z,1000.64
2019-04-26T11:54:39.825Z,1000.62
2019-04-26T11:55:38.971Z,1000.64
2019-04-26T11:56:38.863Z,1000.55
2019-04-26T11:57:40.023Z,1000.57
2019-04-26T11:58:38.087Z,1000.56
2019-04-26T11:59:38.099Z,1000.55
2019-04-26T12:00:38.058Z,1000.59
2019-04-26T12:01:40.440Z,1000.55
2019-04-26T12:02:38.042Z,1000.53
2019-04-26T12:03:38.061Z,1000.57
2019-04-26T12:04:38.066Z,1000.62
2019-04-26T12:05:38.015Z,1000.63